Time;durP1;ratioP1;P1;durP2;ratioP2;P2;SDS_P1;SDS_P2;PMS_P1;PMS_P2;Temp;Humidity;BMP_temperature;BMP_pressure;BME280_temperature;BME280_humidity;BME280_pressure;Samples;Min_cycle;Max_cycle;Signal;HPM_P1;HPM_P2
2023/11/06 00:00:45;;;;;;;3.90;1.20;;;;;;;8.13;90.16;94131.46;106900;1273;25408;-78
2023/11/06 00:03:33;;;;;;;1.80;0.70;;;;;;;8.43;89.20;94142.73;106901;1273;22594;-79
2023/11/06 00:06:02;;;;;;;2.20;0.70;;;;;;;8.72;89.08;94138.10;106864;1273;22538;-78
2023/11/06 00:08:30;;;;;;;5.40;1.80;;;;;;;9.14;87.98;94137.68;106794;1273;25482;-79
2023/11/06 00:10:58;;;;;;;3.50;0.80;;;;;;;9.40;86.85;94147.23;106912;1273;25512;-78
2023/11/06 00:13:27;;;;;;;1.50;0.70;;;;;;;9.70;86.05;94148.74;106869;1273;22528;-77
2023/11/06 00:15:55;;;;;;;5.10;0.90;;;;;;;9.96;84.65;94153.52;106796;1273;22788;-78
2023/11/06 00:18:23;;;;;;;2.50;0.90;;;;;;;10.14;83.93;94160.55;106869;1273;22540;-77
2023/11/06 00:20:51;;;;;;;3.80;0.90;;;;;;;10.22;83.16;94158.98;106836;1273;25415;-78
2023/11/06 00:23:19;;;;;;;2.90;0.90;;;;;;;10.33;82.62;94162.45;106863;1273;22589;-79
2023/11/06 00:25:48;;;;;;;3.20;1.00;;;;;;;10.48;82.46;94178.92;106670;1273;22990;-79
2023/11/06 00:28:16;;;;;;;3.80;1.00;;;;;;;10.57;82.20;94198.42;106811;1273;22536;-77
2023/11/06 00:30:44;;;;;;;2.50;0.80;;;;;;;10.62;82.24;94205.94;106800;1273;24238;-78
2023/11/06 00:33:12;;;;;;;3.80;1.00;;;;;;;10.67;82.15;94216.30;106706;1273;25290;-78
2023/11/06 00:35:41;;;;;;;3.50;0.90;;;;;;;10.73;82.04;94222.55;106894;1273;22635;-78
2023/11/06 00:38:11;;;;;;;5.90;1.10;;;;;;;10.74;82.12;94229.88;106854;1273;25410;-79
2023/11/06 00:40:39;;;;;;;4.50;1.50;;;;;;;10.76;81.99;94237.73;106884;1273;23906;-79
2023/11/06 00:43:07;;;;;;;1.30;0.70;;;;;;;10.76;82.09;94240.19;106918;1273;22637;-77
2023/11/06 00:45:35;;;;;;;1.40;0.80;;;;;;;10.74;82.01;94246.42;106866;1273;22585;-78
2023/11/06 00:48:04;;;;;;;5.10;1.40;;;;;;;10.76;82.07;94242.84;106908;1273;22978;-78
2023/11/06 00:50:33;;;;;;;3.30;1.00;;;;;;;10.74;81.81;94237.46;106736;1273;25390;-78
2023/11/06 00:53:01;;;;;;;4.60;0.90;;;;;;;10.74;81.80;94241.52;106854;1273;22916;-78
2023/11/06 00:55:29;;;;;;;2.40;0.70;;;;;;;10.74;81.80;94248.34;106844;1273;24278;-79
2023/11/06 00:57:59;;;;;;;3.30;1.00;;;;;;;10.77;81.64;94252.10;106880;1273;25365;-79
2023/11/06 01:00:29;;;;;;;4.30;1.20;;;;;;;10.74;81.69;94254.34;106667;1273;25281;-79
2023/11/06 01:02:57;;;;;;;2.00;1.20;;;;;;;10.73;81.54;94252.94;106942;1273;22524;-80
2023/11/06 01:05:25;;;;;;;4.00;1.10;;;;;;;10.74;81.49;94259.42;106888;1273;22533;-78
2023/11/06 01:07:55;;;;;;;4.10;1.20;;;;;;;10.73;81.23;94277.24;106853;1273;22566;-78
2023/11/06 01:10:25;;;;;;;2.30;1.00;;;;;;;10.69;81.17;94279.52;106907;1273;25427;-78
2023/11/06 01:12:56;;;;;;;6.00;1.70;;;;;;;10.70;81.11;94280.38;106935;1273;25432;-77
2023/11/06 01:15:24;;;;;;;4.40;1.60;;;;;;;10.67;81.00;94287.86;106800;1273;24256;-78
2023/11/06 01:17:52;;;;;;;4.40;1.20;;;;;;;10.64;81.14;94290.08;106913;1273;22527;-78
2023/11/06 01:20:21;;;;;;;3.80;1.00;;;;;;;10.58;81.42;94296.67;106839;1273;22527;-78
2023/11/06 01:22:49;;;;;;;4.40;1.30;;;;;;;10.46;81.60;94296.06;106877;1273;22537;-78
2023/11/06 01:25:18;;;;;;;5.90;1.40;;;;;;;10.41;81.87;94293.80;106893;1273;25441;-78
2023/11/06 01:27:47;;;;;;;5.70;1.20;;;;;;;10.41;82.04;94300.48;106901;1273;22512;-77
2023/11/06 01:30:15;;;;;;;5.20;1.30;;;;;;;10.41;81.92;94306.13;106876;1273;22545;-78
2023/11/06 01:32:44;;;;;;;3.30;1.40;;;;;;;10.42;82.14;94318.05;106914;1260;24857;-78
2023/11/06 01:35:13;;;;;;;3.30;1.20;;;;;;;10.42;82.16;94357.40;106883;1273;22590;-80
2023/11/06 01:37:41;;;;;;;5.20;1.40;;;;;;;10.41;83.59;94381.16;106908;1273;25352;-77
2023/11/06 01:40:11;;;;;;;5.00;2.30;;;;;;;10.36;84.27;94350.95;106872;1273;22509;-78
2023/11/06 01:42:39;;;;;;;5.70;2.10;;;;;;;10.33;84.19;94348.42;106803;1273;22523;-78
2023/11/06 01:45:10;;;;;;;2.40;1.10;;;;;;;10.30;84.65;94345.56;106738;1273;25506;-77
2023/11/06 01:47:39;;;;;;;4.60;1.90;;;;;;;10.27;84.30;94345.28;106726;1273;22641;-78
2023/11/06 01:50:08;;;;;;;6.90;2.10;;;;;;;10.24;84.06;94334.16;106868;1273;24215;-78
2023/11/06 01:52:37;;;;;;;2.90;1.00;;;;;;;10.17;84.21;94330.36;106891;1261;23995;-77
2023/11/06 01:55:07;;;;;;;1.60;0.90;;;;;;;10.10;83.86;94325.86;107002;1266;23010;-78
2023/11/06 01:57:38;;;;;;;3.30;1.00;;;;;;;10.04;84.09;94333.67;106895;1266;22524;-79
2023/11/06 02:00:08;;;;;;;3.90;0.80;;;;;;;9.98;83.73;94338.95;106957;1273;25402;-78
2023/11/06 02:02:42;;;;;;;6.80;0.90;;;;;;;9.92;83.92;94348.50;106869;1273;22526;-79
2023/11/06 02:05:11;;;;;;;3.90;0.60;;;;;;;9.81;84.13;94352.75;106719;1273;22556;-79
2023/11/06 02:07:39;;;;;;;2.20;0.80;;;;;;;9.61;83.85;94358.17;106947;1273;25356;-78
2023/11/06 02:10:08;;;;;;;0.90;0.60;;;;;;;9.46;84.01;94370.98;106701;1273;25220;-79
2023/11/06 02:12:36;;;;;;;2.50;0.60;;;;;;;9.30;84.11;94379.91;106792;1273;23094;-79
2023/11/06 02:15:05;;;;;;;2.00;1.10;;;;;;;9.17;84.86;94383.88;106880;1273;22516;-78
2023/11/06 02:17:34;;;;;;;2.90;0.70;;;;;;;9.09;85.13;94389.57;106802;1273;22528;-79
2023/11/06 02:20:04;;;;;;;1.10;0.80;;;;;;;9.04;85.23;94390.09;106843;1273;22517;-79
2023/11/06 02:22:33;;;;;;;4.90;0.90;;;;;;;8.93;85.09;94391.52;106778;1273;22513;-78
2023/11/06 02:25:01;;;;;;;2.90;0.90;;;;;;;8.83;86.09;94404.96;106918;1273;24224;-79
2023/11/06 02:27:29;;;;;;;2.20;1.50;;;;;;;8.82;87.33;94407.77;106927;1273;25362;-79
2023/11/06 02:29:57;;;;;;;3.90;1.50;;;;;;;8.77;86.48;94425.13;106690;1273;24205;-78
2023/11/06 02:32:25;;;;;;;5.10;2.20;;;;;;;8.77;87.11;94425.47;106903;1273;25350;-79
2023/11/06 02:34:53;;;;;;;4.90;2.30;;;;;;;8.82;86.64;94435.83;106824;1273;25246;-80
2023/11/06 02:37:23;;;;;;;7.20;3.50;;;;;;;8.83;86.26;94442.48;106780;1273;22534;-79
2023/11/06 02:39:51;;;;;;;6.20;3.40;;;;;;;8.87;85.58;94437.96;106907;1273;22518;-80
2023/11/06 02:42:20;;;;;;;5.10;2.50;;;;;;;8.96;84.49;94444.70;106977;1257;22742;-79
2023/11/06 02:44:49;;;;;;;3.90;2.00;;;;;;;9.05;83.68;94457.74;106956;1273;25517;-79
2023/11/06 02:47:17;;;;;;;4.10;2.40;;;;;;;9.14;82.53;94459.60;106814;1273;22542;-80
2023/11/06 02:49:45;;;;;;;5.40;3.10;;;;;;;9.19;82.31;94462.08;106983;1273;24396;-79
2023/11/06 02:52:15;;;;;;;2.60;1.70;;;;;;;9.11;82.48;94474.77;106729;1273;22532;-81
2023/11/06 02:54:44;;;;;;;2.10;1.00;;;;;;;9.02;82.40;94478.55;106901;1273;22520;-80
2023/11/06 02:57:12;;;;;;;3.90;2.10;;;;;;;8.93;82.31;94478.65;106924;1273;22756;-80
2023/11/06 02:59:42;;;;;;;3.60;2.00;;;;;;;8.76;82.57;94483.34;106691;1273;25233;-80
2023/11/06 03:02:10;;;;;;;1.70;0.90;;;;;;;8.56;82.73;94488.17;106821;1273;26528;-80
2023/11/06 03:04:38;;;;;;;1.90;0.80;;;;;;;8.41;83.47;94494.85;106695;1273;24254;-80
2023/11/06 03:07:06;;;;;;;0.90;0.80;;;;;;;8.28;83.84;94498.19;106917;1273;22524;-80
2023/11/06 03:09:35;;;;;;;1.10;0.70;;;;;;;8.18;84.39;94507.19;107140;1259;25243;-79
2023/11/06 03:12:03;;;;;;;0.70;0.60;;;;;;;8.17;84.62;94513.36;107139;1273;24227;-80
2023/11/06 03:14:31;;;;;;;2.00;0.70;;;;;;;8.13;84.72;94512.77;107080;1273;22592;-80
2023/11/06 03:17:00;;;;;;;1.00;0.70;;;;;;;8.13;84.78;94516.98;107069;1254;25735;-80
2023/11/06 03:19:29;;;;;;;1.10;0.60;;;;;;;8.08;84.81;94527.62;107172;1273;24375;-81
2023/11/06 03:21:57;;;;;;;3.50;0.80;;;;;;;8.00;84.97;94532.55;107072;1273;25335;-81
2023/11/06 03:24:25;;;;;;;1.10;0.70;;;;;;;7.89;85.03;94534.58;107167;1273;24044;-80
2023/11/06 03:26:53;;;;;;;1.10;0.70;;;;;;;7.85;85.70;94544.84;107069;1273;23276;-80
2023/11/06 03:29:21;;;;;;;1.20;0.70;;;;;;;7.93;85.13;94547.96;106890;1273;23881;-80
2023/11/06 03:31:51;;;;;;;1.40;0.80;;;;;;;8.03;84.71;94552.23;107072;1273;25516;-80
2023/11/06 03:34:20;;;;;;;1.30;0.80;;;;;;;8.11;84.03;94560.98;107162;1263;22646;-78
2023/11/06 03:36:48;;;;;;;2.80;1.30;;;;;;;8.29;82.06;94565.98;106894;1273;22547;-80
2023/11/06 03:39:16;;;;;;;2.80;1.50;;;;;;;8.45;81.11;94563.98;106738;1273;22520;-80
2023/11/06 03:41:44;;;;;;;1.90;0.70;;;;;;;8.55;80.40;94570.73;106913;1273;25421;-80
2023/11/06 03:44:13;;;;;;;3.90;0.80;;;;;;;8.61;80.22;94577.76;106913;1273;22531;-78
2023/11/06 03:46:42;;;;;;;0.50;0.40;;;;;;;8.68;79.45;94581.23;106870;1273;22518;-80
2023/11/06 03:49:10;;;;;;;2.30;0.70;;;;;;;8.80;78.51;94582.13;106681;1273;24075;-79
2023/11/06 03:51:39;;;;;;;1.40;0.70;;;;;;;8.89;77.91;94593.98;106993;1263;22647;-79
2023/11/06 03:54:07;;;;;;;0.80;0.70;;;;;;;8.91;78.04;94604.10;107059;1273;22517;-79
2023/11/06 03:56:35;;;;;;;1.30;0.70;;;;;;;8.91;78.08;94607.79;106659;1273;26678;-78
2023/11/06 03:59:04;;;;;;;1.70;0.60;;;;;;;8.89;77.66;94613.63;106885;1273;24396;-78
2023/11/06 04:01:35;;;;;;;1.50;0.50;;;;;;;8.94;76.81;94612.42;107056;1273;23953;-79
2023/11/06 04:04:04;;;;;;;0.60;0.50;;;;;;;8.95;76.95;94617.52;106738;1273;22525;-78
2023/11/06 04:06:33;;;;;;;1.40;0.50;;;;;;;8.94;76.54;94614.55;106954;1273;22546;-78
2023/11/06 04:09:03;;;;;;;2.80;1.00;;;;;;;8.95;76.24;94613.45;107064;1273;25253;-78
2023/11/06 04:11:31;;;;;;;1.50;0.60;;;;;;;8.99;76.13;94617.74;107131;1273;22550;-78
2023/11/06 04:13:59;;;;;;;1.00;0.60;;;;;;;8.99;76.46;94617.55;107062;1273;22533;-78
2023/11/06 04:16:31;;;;;;;1.70;0.90;;;;;;;8.92;76.84;94615.30;107133;1273;22527;-79
2023/11/06 04:18:59;;;;;;;2.90;0.60;;;;;;;8.79;77.03;94614.24;107146;1273;22514;-79
2023/11/06 04:21:27;;;;;;;0.70;0.50;;;;;;;8.82;76.65;94616.80;107080;1273;22536;-80
2023/11/06 04:23:56;;;;;;;0.60;0.40;;;;;;;8.87;76.45;94612.48;107156;1273;26220;-78
2023/11/06 04:26:24;;;;;;;1.60;1.10;;;;;;;8.91;76.13;94616.75;107147;1263;22800;-78
2023/11/06 04:28:52;;;;;;;2.10;1.60;;;;;;;8.95;75.39;94625.03;107138;1273;24057;-78
2023/11/06 04:31:20;;;;;;;2.90;1.00;;;;;;;8.98;75.36;94633.21;107117;1273;24284;-77
2023/11/06 04:33:48;;;;;;;1.40;0.50;;;;;;;8.98;74.96;94637.05;107053;1273;25494;-77
2023/11/06 04:36:16;;;;;;;1.30;0.70;;;;;;;9.03;74.68;94645.16;106888;1269;22552;-79
2023/11/06 04:38:45;;;;;;;0.80;0.60;;;;;;;9.00;74.62;94647.51;106873;1273;22532;-77
2023/11/06 04:41:13;;;;;;;5.40;4.40;;;;;;;8.97;74.32;94654.11;106922;1273;24927;-78
2023/11/06 04:43:41;;;;;;;14.50;13.00;;;;;;;8.92;74.56;94660.74;106921;1273;24201;-77
2023/11/06 04:46:09;;;;;;;6.80;4.20;;;;;;;8.83;74.56;94666.76;106783;1273;25277;-78
2023/11/06 04:48:37;;;;;;;3.10;2.80;;;;;;;8.77;74.83;94669.02;107050;1273;24353;-78
2023/11/06 04:51:06;;;;;;;38.20;25.60;;;;;;;8.68;75.05;94676.79;107157;1273;24250;-78
2023/11/06 04:53:35;;;;;;;2.40;1.70;;;;;;;8.63;74.96;94679.73;106692;1273;22756;-77
2023/11/06 04:56:04;;;;;;;7.30;4.80;;;;;;;8.66;74.70;94680.70;107076;1273;24288;-78
2023/11/06 04:58:32;;;;;;;2.50;0.90;;;;;;;8.69;74.91;94686.41;107120;1273;25449;-78
2023/11/06 05:01:04;;;;;;;7.00;5.00;;;;;;;8.66;75.03;94694.39;107041;1273;22511;-77
2023/11/06 05:03:35;;;;;;;3.90;1.50;;;;;;;8.63;75.04;94704.61;107117;1273;22585;-78
2023/11/06 05:06:05;;;;;;;1.20;0.90;;;;;;;8.61;75.13;94704.84;107062;1273;22520;-79
2023/11/06 05:08:35;;;;;;;1.30;0.60;;;;;;;8.55;75.56;94700.95;106969;1273;272900;-79
2023/11/06 05:11:05;;;;;;;2.60;0.80;;;;;;;8.53;75.98;94705.41;107079;1273;25243;-78
2023/11/06 05:13:34;;;;;;;15.50;13.20;;;;;;;8.50;76.02;94705.46;107076;1273;22521;-78
2023/11/06 05:16:04;;;;;;;1.10;0.70;;;;;;;8.43;76.38;94710.54;106879;1273;24645;-78
2023/11/06 05:18:32;;;;;;;2.90;1.90;;;;;;;8.29;76.90;94719.79;106780;1273;22755;-78
2023/11/06 05:21:01;;;;;;;1.20;1.00;;;;;;;8.17;77.24;94717.95;106842;1273;22663;-78
2023/11/06 05:23:29;;;;;;;1.50;1.00;;;;;;;8.18;76.95;94725.30;106904;1273;24278;-78
2023/11/06 05:25:57;;;;;;;3.10;1.40;;;;;;;8.25;76.56;94733.19;106925;1272;22588;-78
2023/11/06 05:28:25;;;;;;;0.80;0.60;;;;;;;8.28;76.83;94739.26;106687;1273;25307;-78
2023/11/06 05:30:53;;;;;;;2.00;1.10;;;;;;;8.18;77.07;94738.27;106923;1273;24632;-78
2023/11/06 05:33:21;;;;;;;0.90;0.80;;;;;;;8.03;77.36;94743.50;106892;1273;22516;-78
2023/11/06 05:35:49;;;;;;;1.20;0.60;;;;;;;7.91;77.27;94748.33;106700;1273;22535;-78
2023/11/06 05:38:18;;;;;;;1.00;0.70;;;;;;;7.95;76.77;94756.98;106880;1273;24264;-78
2023/11/06 05:40:46;;;;;;;2.20;0.60;;;;;;;8.00;77.05;94762.15;106884;1273;22535;-78
2023/11/06 05:43:14;;;;;;;0.50;0.50;;;;;;;7.90;77.66;94769.02;106938;1273;25242;-79
2023/11/06 05:45:42;;;;;;;1.90;0.60;;;;;;;7.81;77.58;94774.10;106877;1273;22521;-78
2023/11/06 05:48:10;;;;;;;0.60;0.60;;;;;;;7.69;78.23;94778.02;106848;1273;22635;-78
2023/11/06 05:50:39;;;;;;;1.30;0.50;;;;;;;7.58;78.51;94786.65;106768;1273;22521;-78
2023/11/06 05:53:07;;;;;;;0.80;0.50;;;;;;;7.53;78.78;94789.20;106839;1273;22516;-78
2023/11/06 05:55:35;;;;;;;1.30;0.50;;;;;;;7.48;78.82;94798.57;106913;1273;24249;-80
2023/11/06 05:58:03;;;;;;;0.80;0.50;;;;;;;7.45;79.39;94802.66;106982;1273;22636;-79
2023/11/06 06:00:32;;;;;;;1.80;0.50;;;;;;;7.45;79.87;94810.89;106943;1273;22521;-79
2023/11/06 06:03:02;;;;;;;1.20;0.40;;;;;;;7.42;80.06;94818.28;106917;1273;22514;-79
2023/11/06 06:05:31;;;;;;;0.70;0.50;;;;;;;7.43;80.57;94821.60;106970;1273;22511;-78
2023/11/06 06:07:59;;;;;;;2.10;1.70;;;;;;;7.48;80.87;94822.02;107001;1273;22570;-81
2023/11/06 06:10:27;;;;;;;1.50;0.70;;;;;;;7.42;81.72;94826.34;107333;1272;26750;-79
2023/11/06 06:12:55;;;;;;;2.20;1.60;;;;;;;7.41;81.73;94826.70;107260;1273;22527;-79
2023/11/06 06:15:24;;;;;;;1.00;0.40;;;;;;;7.53;82.07;94832.42;107164;1273;22520;-79
2023/11/06 06:17:52;;;;;;;1.50;0.60;;;;;;;7.57;82.01;94836.02;107106;1273;22531;-79
2023/11/06 06:20:20;;;;;;;1.30;0.30;;;;;;;7.67;82.14;94842.66;107089;1273;24566;-80
2023/11/06 06:22:48;;;;;;;2.90;1.20;;;;;;;7.76;82.16;94847.91;106754;1264;25394;-79
2023/11/06 06:25:16;;;;;;;1.50;0.50;;;;;;;7.86;82.01;94848.78;107012;1273;25383;-80
2023/11/06 06:27:44;;;;;;;1.10;0.30;;;;;;;7.87;81.82;94855.77;107154;1273;22523;-78
2023/11/06 06:30:15;;;;;;;2.00;0.80;;;;;;;7.90;82.40;94850.42;107247;1273;25365;-78
2023/11/06 06:32:43;;;;;;;1.30;0.60;;;;;;;8.07;82.29;94855.15;107224;1273;25705;-79
2023/11/06 06:35:12;;;;;;;0.80;0.60;;;;;;;8.24;81.23;94860.60;107291;1273;22536;-79
2023/11/06 06:37:40;;;;;;;0.90;0.40;;;;;;;8.54;76.59;94862.59;107249;1273;25408;-77
2023/11/06 06:40:10;;;;;;;3.30;0.60;;;;;;;8.82;76.36;94861.25;107196;1273;22523;-77
2023/11/06 06:42:38;;;;;;;1.70;0.70;;;;;;;9.03;75.55;94864.27;107199;1273;22792;-78
2023/11/06 06:45:07;;;;;;;1.10;0.50;;;;;;;9.22;75.14;94867.48;106942;1273;22502;-77
2023/11/06 06:47:35;;;;;;;0.60;0.40;;;;;;;9.36;73.45;94867.12;106901;1273;22618;-79
2023/11/06 06:50:04;;;;;;;0.60;0.40;;;;;;;9.49;72.34;94870.98;107031;1273;22521;-79
2023/11/06 06:52:32;;;;;;;0.90;0.50;;;;;;;9.61;72.42;94880.19;107141;1262;24253;-79
2023/11/06 06:55:00;;;;;;;2.40;0.60;;;;;;;9.72;72.32;94882.33;107211;1273;24390;-77
2023/11/06 06:57:29;;;;;;;1.40;0.60;;;;;;;9.83;71.28;94883.80;107036;1273;25036;-76
2023/11/06 06:59:57;;;;;;;0.70;0.40;;;;;;;9.95;68.62;94883.30;106919;1273;24634;-78
2023/11/06 07:02:25;;;;;;;2.50;0.60;;;;;;;10.08;67.92;94887.17;106895;1263;22629;-78
2023/11/06 07:04:53;;;;;;;1.70;0.60;;;;;;;10.18;68.94;94891.97;106982;1273;22554;-77
2023/11/06 07:07:22;;;;;;;2.80;0.50;;;;;;;10.26;67.85;94898.79;106940;1273;22632;-79
2023/11/06 07:09:52;;;;;;;2.70;0.70;;;;;;;10.33;66.56;94894.36;107119;1273;23431;-78
2023/11/06 07:12:20;;;;;;;2.40;0.80;;;;;;;10.41;66.77;94894.86;107066;1274;22959;-79
2023/11/06 07:14:49;;;;;;;1.20;0.60;;;;;;;10.49;67.37;94893.77;107051;1274;25860;-77
2023/11/06 07:17:18;;;;;;;2.20;1.60;;;;;;;10.56;66.55;94895.64;106723;1274;24382;-77
2023/11/06 07:19:46;;;;;;;17.00;6.20;;;;;;;10.66;67.04;94900.48;106884;1250;22529;-77
2023/11/06 07:22:15;;;;;;;1.70;0.60;;;;;;;10.69;66.82;94910.73;106980;1274;22543;-76
2023/11/06 07:24:43;;;;;;;2.40;1.70;;;;;;;10.69;66.21;94909.88;106894;1274;24347;-77
2023/11/06 07:27:12;;;;;;;6.50;5.90;;;;;;;10.71;65.58;94912.63;106919;1272;25542;-78
2023/11/06 07:29:40;;;;;;;0.70;0.40;;;;;;;10.78;64.86;94914.69;106977;1274;25404;-76
2023/11/06 07:32:10;;;;;;;1.40;0.90;;;;;;;10.86;64.25;94909.02;106934;1274;22971;-77
2023/11/06 07:34:38;;;;;;;1.90;0.70;;;;;;;10.96;65.68;94912.76;108687;1274;24505;-79
2023/11/06 07:37:06;;;;;;;0.70;0.30;;;;;;;11.02;62.79;94910.80;106896;1274;22562;-78
2023/11/06 07:39:35;;;;;;;2.00;1.50;;;;;;;11.07;63.20;94911.69;106943;1274;22595;-77
2023/11/06 07:42:03;;;;;;;2.10;1.60;;;;;;;11.07;62.46;94907.65;106646;1274;22513;-79
2023/11/06 07:44:35;;;;;;;1.40;1.20;;;;;;;11.13;63.29;94906.58;106823;1274;22521;-79
2023/11/06 07:47:03;;;;;;;1.00;0.70;;;;;;;11.18;63.16;94906.42;107144;1274;22567;-79
2023/11/06 07:49:32;;;;;;;0.70;0.30;;;;;;;11.25;62.44;94906.36;107146;1274;22649;-80
2023/11/06 07:52:08;;;;;;;1.70;0.80;;;;;;;11.29;62.68;94909.77;106951;1274;25341;-78
2023/11/06 07:54:40;;;;;;;1.00;0.30;;;;;;;11.32;61.12;94924.10;106833;1274;25375;-79
2023/11/06 07:57:09;;;;;;;0.30;0.30;;;;;;;11.26;61.03;94934.33;106947;1275;22579;-78
2023/11/06 07:59:41;;;;;;;1.10;0.40;;;;;;;11.16;61.02;94932.19;106882;1274;24201;-78
2023/11/06 08:02:12;;;;;;;2.20;1.50;;;;;;;11.09;60.58;94940.66;109628;1274;22815;-78
2023/11/06 08:04:41;;;;;;;0.40;0.40;;;;;;;11.16;60.38;94937.28;106904;1274;23880;-78
2023/11/06 08:07:11;;;;;;;4.30;3.00;;;;;;;11.18;58.67;94940.91;106859;1274;22573;-78
2023/11/06 08:09:39;;;;;;;1.70;0.60;;;;;;;11.13;59.56;94942.48;106838;1274;24292;-78
2023/11/06 08:12:13;;;;;;;10.20;5.10;;;;;;;11.18;59.56;94945.83;107008;1274;25261;-76
2023/11/06 08:14:41;;;;;;;1.60;0.70;;;;;;;11.16;59.98;94951.73;106946;1274;22529;-76
2023/11/06 08:17:09;;;;;;;1.60;0.60;;;;;;;11.15;59.86;94958.08;106923;1274;22520;-76
2023/11/06 08:19:39;;;;;;;2.30;0.70;;;;;;;11.31;59.62;94954.43;106961;1274;24339;-76
2023/11/06 08:22:10;;;;;;;1.50;0.70;;;;;;;11.51;58.48;94958.35;106741;1274;22520;-76
2023/11/06 08:24:38;;;;;;;1.50;0.80;;;;;;;11.65;57.45;94964.04;106684;1274;22646;-75
2023/11/06 08:27:08;;;;;;;1.80;0.90;;;;;;;11.83;56.49;94968.77;106822;1274;22573;-78
2023/11/06 08:29:41;;;;;;;0.70;0.70;;;;;;;11.95;56.36;94972.29;106781;1274;25424;-76
2023/11/06 08:32:13;;;;;;;;;;;;;;;12.04;54.88;94974.60;107132;1274;22610;-77
2023/11/06 08:34:42;;;;;;;0.60;0.40;;;;;;;12.13;55.44;94963.02;107145;1274;22524;-77
2023/11/06 08:37:12;;;;;;;1.00;0.80;;;;;;;12.25;55.44;94964.19;107165;1274;24246;-77
2023/11/06 08:39:43;;;;;;;1.00;0.90;;;;;;;12.38;55.75;94966.02;107170;1274;22535;-79
2023/11/06 08:42:12;;;;;;;3.50;3.20;;;;;;;12.47;54.88;94974.51;106997;1274;25423;-79
2023/11/06 08:44:42;;;;;;;1.20;0.90;;;;;;;12.62;54.87;94977.85;107476;1274;24053;-77
2023/11/06 08:47:10;;;;;;;1.50;0.90;;;;;;;12.72;53.61;94981.53;107425;1274;25427;-80
2023/11/06 08:49:40;;;;;;;0.90;0.20;;;;;;;12.77;52.04;94981.73;107190;1275;22737;-79
2023/11/06 08:52:09;;;;;;;0.30;0.20;;;;;;;12.79;51.42;94985.89;106974;1275;22635;-79
2023/11/06 08:54:45;;;;;;;0.30;0.20;;;;;;;12.84;51.82;94983.92;107006;1275;22530;-80
2023/11/06 08:57:16;;;;;;;1.50;0.30;;;;;;;12.91;50.88;94986.50;106922;1275;22520;-77
2023/11/06 08:59:48;;;;;;;2.10;0.30;;;;;;;12.96;51.33;94984.35;106931;1275;22524;-79
2023/11/06 09:02:16;;;;;;;1.50;0.40;;;;;;;13.02;50.97;94984.84;107284;1275;24247;-76
2023/11/06 09:04:45;;;;;;;0.60;0.30;;;;;;;13.09;51.32;94988.99;106720;1275;23071;-79
2023/11/06 09:07:14;;;;;;;0.40;0.20;;;;;;;13.15;50.74;94995.48;106978;1275;22527;-77
2023/11/06 09:09:43;;;;;;;0.60;0.60;;;;;;;13.25;50.74;94994.02;107177;1275;24356;-79
2023/11/06 09:12:14;;;;;;;0.40;0.30;;;;;;;13.41;52.50;94995.92;107113;1275;22761;-78
2023/11/06 09:14:42;;;;;;;0.70;0.40;;;;;;;13.59;51.62;95005.11;106979;1275;24359;-78
2023/11/06 09:17:10;;;;;;;0.50;0.30;;;;;;;13.70;50.68;95006.59;107252;1275;24797;-78
2023/11/06 09:19:39;;;;;;;0.70;0.20;;;;;;;13.77;50.28;95007.20;107078;1275;24393;-78
2023/11/06 09:22:08;;;;;;;0.90;0.30;;;;;;;13.84;48.50;95010.98;107215;1273;24281;-77
2023/11/06 09:24:37;;;;;;;0.30;0.30;;;;;;;13.88;48.70;95019.68;106809;1275;22595;-77
2023/11/06 09:27:05;;;;;;;0.60;0.20;;;;;;;13.87;47.60;95016.15;107141;1275;22531;-76
2023/11/06 09:29:34;;;;;;;0.30;0.20;;;;;;;13.90;47.21;95008.98;107047;1275;22522;-76
2023/11/06 09:32:05;;;;;;;0.50;0.20;;;;;;;13.97;47.34;95006.93;107095;1275;25416;-77
2023/11/06 09:34:40;;;;;;;0.40;0.30;;;;;;;14.12;47.89;95008.08;107220;1275;25293;-77
2023/11/06 09:37:09;;;;;;;0.30;0.30;;;;;;;14.26;46.42;95012.44;107220;1275;25503;-76
2023/11/06 09:39:42;;;;;;;0.40;0.20;;;;;;;14.36;46.37;95014.31;107030;1275;22536;-76
2023/11/06 09:42:11;;;;;;;0.90;0.60;;;;;;;14.53;46.88;95016.59;106983;1275;25404;-77
2023/11/06 09:44:39;;;;;;;1.10;0.30;;;;;;;14.65;45.64;95021.59;106911;1275;24325;-77
2023/11/06 09:47:07;;;;;;;1.10;0.50;;;;;;;14.52;45.77;95015.95;107228;1275;25399;-78
2023/11/06 09:49:50;;;;;;;1.80;0.30;;;;;;;14.69;47.51;95018.05;106849;1275;24225;-76
2023/11/06 09:52:20;;;;;;;0.40;0.30;;;;;;;14.84;44.41;95024.46;107519;1275;22651;-77
2023/11/06 09:54:50;;;;;;;1.20;0.20;;;;;;;14.90;43.99;95028.10;106954;1275;22943;-79
2023/11/06 09:57:19;;;;;;;0.20;0.20;;;;;;;15.02;43.67;95028.09;107481;1275;24234;-78
2023/11/06 09:59:48;;;;;;;4.40;0.30;;;;;;;15.37;43.85;95029.52;107115;1275;22534;-78
2023/11/06 10:02:21;;;;;;;0.20;0.20;;;;;;;15.66;42.28;95026.02;106988;1275;25440;-77
2023/11/06 10:04:50;;;;;;;0.20;0.20;;;;;;;15.97;42.38;95029.52;106998;1275;22528;-78
2023/11/06 10:07:41;;;;;;;3.00;0.50;;;;;;;16.28;41.75;95031.40;108098;1275;24404;-78
2023/11/06 10:10:20;;;;;;;0.70;0.30;;;;;;;16.67;41.20;95023.38;107188;1275;22531;-78
2023/11/06 10:13:07;;;;;;;0.90;0.40;;;;;;;16.96;39.89;95036.27;107171;1275;24262;-78
2023/11/06 10:15:36;;;;;;;0.20;0.20;;;;;;;16.82;39.86;95043.58;107866;1275;25322;-79
2023/11/06 10:18:15;;;;;;;0.40;0.30;;;;;;;17.09;40.08;95047.84;107162;1275;25290;-78
2023/11/06 10:20:49;;;;;;;1.00;0.20;;;;;;;17.15;38.73;95046.15;107087;1275;22595;-78
2023/11/06 10:23:24;;;;;;;0.90;0.60;;;;;;;17.32;38.37;95049.50;106827;1275;25511;-80
2023/11/06 10:25:54;;;;;;;1.80;0.40;;;;;;;17.48;38.28;95048.98;106798;1275;22647;-79
2023/11/06 10:28:23;;;;;;;4.20;0.40;;;;;;;17.69;38.19;95048.19;106608;1275;23036;-78
2023/11/06 10:30:52;;;;;;;1.80;0.40;;;;;;;17.99;38.14;95049.38;106620;1275;25605;-78
2023/11/06 10:33:21;;;;;;;0.80;0.40;;;;;;;18.18;38.26;95047.25;106663;1275;22632;-78
2023/11/06 10:35:52;;;;;;;1.20;0.40;;;;;;;18.58;38.73;95053.12;106669;1275;25284;-79
2023/11/06 10:38:34;;;;;;;0.30;0.30;;;;;;;18.61;36.91;95057.58;106843;1275;24393;-77
2023/11/06 10:41:24;;;;;;;4.20;0.90;;;;;;;18.66;36.07;95059.77;106484;1275;22530;-78
2023/11/06 10:44:00;;;;;;;0.80;0.30;;;;;;;19.02;36.62;95058.55;106924;1271;22606;-78
2023/11/06 10:46:31;;;;;;;0.60;0.40;;;;;;;18.97;36.39;95061.20;107308;1274;24371;-78
2023/11/06 10:49:10;;;;;;;0.40;0.20;;;;;;;19.18;36.15;95062.02;107139;1272;25341;-79
2023/11/06 10:51:41;;;;;;;1.90;0.30;;;;;;;19.43;35.95;95065.55;107135;1274;22642;-78
2023/11/06 10:54:11;;;;;;;1.20;0.40;;;;;;;19.64;35.74;95073.49;107111;1274;22620;-78
2023/11/06 10:56:40;;;;;;;0.80;0.50;;;;;;;19.90;35.42;95075.84;107012;1274;24365;-79
2023/11/06 10:59:08;;;;;;;2.10;0.40;;;;;;;19.95;35.21;95077.83;106734;1267;22547;-76
2023/11/06 11:01:38;;;;;;;0.50;0.40;;;;;;;20.13;33.77;95084.87;106824;1275;23906;-76
2023/11/06 11:04:10;;;;;;;0.50;0.30;;;;;;;20.45;34.32;95091.92;106969;1274;24248;-77
2023/11/06 11:06:40;;;;;;;2.00;0.70;;;;;;;20.33;33.53;95098.95;106990;1260;24387;-76
2023/11/06 11:09:11;;;;;;;1.90;0.70;;;;;;;20.35;34.11;95107.21;107418;1274;22656;-75
2023/11/06 11:11:39;;;;;;;2.70;0.70;;;;;;;20.14;35.11;95112.45;107128;1274;24369;-78
2023/11/06 11:14:12;;;;;;;0.70;0.50;;;;;;;20.37;35.21;95118.86;106858;1275;22525;-77
2023/11/06 11:16:45;;;;;;;1.90;0.50;;;;;;;20.30;35.75;95126.45;107000;1274;25261;-78
2023/11/06 11:19:28;;;;;;;1.30;0.60;;;;;;;20.67;35.13;95130.31;106811;1274;24189;-77
2023/11/06 11:22:09;;;;;;;0.80;0.60;;;;;;;20.81;35.24;95129.59;106736;1274;24455;-78
2023/11/06 11:24:53;;;;;;;1.40;0.60;;;;;;;20.70;34.48;95144.61;106852;1260;24394;-77
2023/11/06 11:27:26;;;;;;;1.20;0.40;;;;;;;20.29;33.98;95140.48;106831;1274;25379;-77
2023/11/06 11:29:55;;;;;;;0.50;0.50;;;;;;;20.32;34.06;95139.00;106751;1274;25372;-77
2023/11/06 11:32:29;;;;;;;1.00;0.50;;;;;;;20.26;32.88;95150.09;106793;1274;22529;-77
2023/11/06 11:35:10;;;;;;;1.20;0.60;;;;;;;19.91;33.38;95151.02;106775;1275;22527;-77
2023/11/06 11:37:39;;;;;;;3.90;0.60;;;;;;;19.94;35.05;95143.77;106771;1275;22528;-78
2023/11/06 11:40:10;;;;;;;1.20;0.70;;;;;;;20.35;34.07;95144.71;106851;1275;25335;-77